Time;durP1;ratioP1;P1;durP2;ratioP2;P2;SDS_P1;SDS_P2;PMS_P1;PMS_P2;Temp;Humidity;BMP_temperature;BMP_pressure;BME280_temperature;BME280_humidity;BME280_pressure;Samples;Min_cycle;Max_cycle;Signal;HPM_P1;HPM_P2
2021/12/29 00:02:18;;;;;;;24.63;20.67;;;8.10;93.50;;;;;;4842356;29;20064;-74
2021/12/29 00:04:44;;;;;;;25.27;22.33;;;8.10;93.60;;;;;;4841606;29;20034;-73
2021/12/29 00:07:10;;;;;;;26.23;21.60;;;8.10;93.80;;;;;;4842248;29;20041;-74
2021/12/29 00:09:40;;;;;;;32.17;22.63;;;8.10;93.80;;;;;;4842210;29;20030;-73
2021/12/29 00:12:10;;;;;;;28.23;22.70;;;8.10;93.80;;;;;;4842183;29;20026;-73
2021/12/29 00:14:36;;;;;;;25.20;21.90;;;8.10;93.70;;;;;;4841777;29;20030;-73
2021/12/29 00:17:02;;;;;;;27.30;21.90;;;8.10;93.80;;;;;;4842062;29;20392;-74
2021/12/29 00:19:28;;;;;;;25.60;21.70;;;8.10;93.90;;;;;;4842273;29;20030;-73
2021/12/29 00:21:54;;;;;;;23.90;21.17;;;8.10;93.90;;;;;;4842301;29;20437;-74
2021/12/29 00:24:20;;;;;;;26.23;22.73;;;8.10;93.90;;;;;;4842028;29;20042;-75
2021/12/29 00:26:45;;;;;;;28.93;22.00;;;8.10;93.90;;;;;;4842080;29;20105;-73
2021/12/29 00:29:11;;;;;;;27.93;22.57;;;8.10;93.90;;;;;;4842080;29;20038;-73
2021/12/29 00:31:37;;;;;;;27.57;23.70;;;8.10;94.00;;;;;;4842165;29;20371;-73
2021/12/29 00:34:03;;;;;;;26.83;22.03;;;8.10;94.00;;;;;;4841968;29;20034;-73
2021/12/29 00:36:28;;;;;;;29.30;23.93;;;8.10;94.10;;;;;;4842034;29;20105;-73
2021/12/29 00:38:54;;;;;;;28.60;24.27;;;8.10;94.10;;;;;;4842104;29;20429;-73
2021/12/29 00:41:20;;;;;;;30.17;24.73;;;8.10;94.00;;;;;;4841700;29;20060;-73
2021/12/29 00:43:47;;;;;;;25.60;21.93;;;8.10;94.10;;;;;;4841650;29;20049;-73
2021/12/29 00:46:17;;;;;;;26.57;21.37;;;8.20;94.10;;;;;;4841955;29;20111;-73
2021/12/29 00:48:44;;;;;;;28.30;21.93;;;8.30;93.80;;;;;;4841876;29;20049;-74
2021/12/29 00:51:11;;;;;;;27.80;21.83;;;8.30;93.50;;;;;;4841886;29;20057;-73
2021/12/29 00:53:37;;;;;;;29.93;22.40;;;8.30;93.40;;;;;;4842088;29;20065;-73
2021/12/29 00:56:03;;;;;;;29.27;23.63;;;8.20;93.50;;;;;;4841965;29;20037;-73
2021/12/29 00:58:29;;;;;;;30.00;24.50;;;8.20;93.60;;;;;;4843852;29;20121;-73
2021/12/29 01:00:56;;;;;;;25.37;22.63;;;8.20;93.80;;;;;;4845162;29;20105;-74
2021/12/29 01:03:22;;;;;;;25.63;22.77;;;8.10;94.10;;;;;;4844812;29;20235;-73
2021/12/29 01:05:48;;;;;;;25.87;21.27;;;8.10;93.90;;;;;;4844837;29;20034;-73
2021/12/29 01:08:14;;;;;;;27.70;21.37;;;8.10;93.90;;;;;;4845064;29;20026;-73
2021/12/29 01:10:41;;;;;;;26.73;22.03;;;8.10;93.80;;;;;;4845009;29;20030;-73
2021/12/29 01:13:09;;;;;;;26.43;21.87;;;8.20;93.70;;;;;;4844747;29;20122;-75
2021/12/29 01:16:16;;;;;;;26.00;21.17;;;8.10;93.70;;;;;;4844924;29;20029;-74
2021/12/29 01:18:45;;;;;;;25.67;21.70;;;8.10;93.80;;;;;;4845037;29;20181;-73
2021/12/29 01:21:11;;;;;;;34.40;22.63;;;8.10;93.80;;;;;;4844949;29;20030;-73
2021/12/29 01:23:37;;;;;;;27.87;22.90;;;8.10;93.80;;;;;;4858878;29;20030;-74
2021/12/29 01:26:03;;;;;;;29.27;22.90;;;8.10;93.80;;;;;;4844857;29;20040;-74
2021/12/29 01:28:29;;;;;;;24.00;21.40;;;8.10;93.90;;;;;;4844840;29;20151;-73
2021/12/29 01:30:55;;;;;;;30.60;23.67;;;8.10;93.70;;;;;;4844246;29;20488;-73
2021/12/29 01:33:21;;;;;;;28.37;23.13;;;8.10;93.70;;;;;;4844455;29;20034;-74
2021/12/29 01:35:47;;;;;;;29.50;23.57;;;8.10;93.80;;;;;;4844599;29;20395;-73
2021/12/29 01:38:13;;;;;;;30.93;25.90;;;8.00;94.00;;;;;;4844465;29;20022;-74
2021/12/29 01:40:39;;;;;;;28.60;24.13;;;7.80;94.20;;;;;;4844530;29;20034;-73
2021/12/29 01:43:09;;;;;;;30.70;24.47;;;7.80;94.40;;;;;;4844233;29;20030;-74
2021/12/29 01:45:36;;;;;;;26.93;24.00;;;7.90;94.50;;;;;;4844561;29;20090;-73
2021/12/29 01:48:03;;;;;;;31.00;25.77;;;7.90;94.50;;;;;;4844258;29;20440;-74
2021/12/29 01:50:31;;;;;;;34.13;26.77;;;7.80;94.70;;;;;;4844517;29;20095;-74
2021/12/29 01:53:02;;;;;;;31.00;26.67;;;7.80;94.80;;;;;;4844348;29;20030;-73
2021/12/29 01:55:30;;;;;;;32.93;26.03;;;7.80;94.90;;;;;;4844235;29;20440;-74
2021/12/29 01:57:57;;;;;;;31.23;26.00;;;7.80;94.80;;;;;;4843299;29;20042;-73
2021/12/29 02:00:27;;;;;;;32.87;26.47;;;7.70;94.90;;;;;;4841520;29;20030;-73
2021/12/29 02:02:53;;;;;;;30.30;26.43;;;7.70;95.10;;;;;;4841212;29;20072;-74
2021/12/29 02:05:19;;;;;;;33.53;25.50;;;7.70;95.20;;;;;;4842703;29;20065;-73
2021/12/29 02:07:45;;;;;;;31.93;27.63;;;7.60;95.30;;;;;;4843999;29;20057;-74
2021/12/29 02:10:14;;;;;;;31.20;26.60;;;7.70;95.30;;;;;;4843230;29;20559;-73
2021/12/29 02:12:40;;;;;;;34.10;27.17;;;7.70;95.30;;;;;;4842314;29;20078;-74
2021/12/29 02:15:07;;;;;;;31.73;27.53;;;7.70;95.30;;;;;;4843947;29;20038;-73
2021/12/29 02:17:33;;;;;;;35.00;27.10;;;7.70;95.20;;;;;;4843618;29;20483;-73
2021/12/29 02:20:08;;;;;;;33.47;28.23;;;7.70;95.20;;;;;;4843660;29;20034;-73
2021/12/29 02:23:11;;;;;;;36.00;27.67;;;7.60;95.20;;;;;;4843588;29;20062;-73
2021/12/29 02:25:35;;;;;;;33.70;26.97;;;7.60;95.40;;;;;;4843551;29;20112;-74
2021/12/29 02:28:02;;;;;;;32.10;26.43;;;7.80;95.40;;;;;;4843264;29;20094;-73
2021/12/29 02:30:27;;;;;;;37.93;27.20;;;7.80;95.20;;;;;;4857533;29;20030;-73
2021/12/29 02:32:55;;;;;;;35.97;27.10;;;7.80;95.10;;;;;;4843468;29;20038;-73
2021/12/29 02:35:22;;;;;;;36.37;26.20;;;7.90;95.10;;;;;;4843386;29;20529;-73
2021/12/29 02:37:48;;;;;;;40.80;29.33;;;7.90;94.90;;;;;;4843491;29;20034;-74
2021/12/29 02:40:14;;;;;;;37.37;29.13;;;7.90;94.80;;;;;;4857525;29;20122;-73
2021/12/29 02:42:42;;;;;;;46.87;31.50;;;7.90;94.80;;;;;;4842829;29;20041;-74
2021/12/29 02:45:14;;;;;;;47.83;31.73;;;7.90;94.70;;;;;;4843213;29;20053;-73
2021/12/29 02:47:41;;;;;;;46.72;31.88;;;7.90;94.80;;;;;;4843316;29;20026;-74
2021/12/29 02:50:08;;;;;;;51.23;33.23;;;7.90;94.80;;;;;;4842922;29;20121;-73
2021/12/29 02:52:33;;;;;;;53.30;34.23;;;7.90;94.80;;;;;;4843102;29;20029;-74
2021/12/29 02:54:59;;;;;;;52.03;35.30;;;7.90;94.90;;;;;;4842915;29;20483;-73
2021/12/29 02:57:25;;;;;;;55.73;35.23;;;7.90;94.90;;;;;;4843280;29;20045;-73
2021/12/29 02:59:51;;;;;;;46.10;31.33;;;7.90;94.90;;;;;;4842722;29;20026;-74
2021/12/29 03:02:17;;;;;;;43.73;29.87;;;8.00;94.90;;;;;;4843173;29;20038;-73
2021/12/29 03:04:42;;;;;;;44.97;31.10;;;8.10;94.50;;;;;;4842687;29;20073;-74
2021/12/29 03:07:08;;;;;;;43.07;30.83;;;8.10;94.30;;;;;;4842890;29;20059;-75
2021/12/29 03:09:34;;;;;;;44.57;30.33;;;8.10;94.30;;;;;;4842842;29;20053;-73
2021/12/29 03:12:00;;;;;;;44.90;31.53;;;8.10;94.30;;;;;;4843000;29;20026;-74
2021/12/29 03:14:25;;;;;;;49.40;32.07;;;8.00;94.40;;;;;;4842696;29;20037;-75
2021/12/29 03:16:52;;;;;;;47.47;31.80;;;7.90;94.50;;;;;;4842789;29;20516;-73
2021/12/29 03:19:18;;;;;;;50.90;32.47;;;7.90;94.70;;;;;;4842547;29;20034;-73
2021/12/29 03:21:47;;;;;;;44.53;30.53;;;7.90;94.80;;;;;;4842885;29;20403;-74
2021/12/29 03:24:15;;;;;;;43.30;28.90;;;7.90;94.80;;;;;;4842514;29;20402;-74
2021/12/29 03:26:41;;;;;;;41.07;29.67;;;7.80;94.70;;;;;;4842541;29;20026;-73
2021/12/29 03:29:07;;;;;;;38.60;27.33;;;7.80;94.70;;;;;;4842572;29;20053;-74
2021/12/29 03:31:37;;;;;;;37.43;27.20;;;7.70;94.90;;;;;;4842401;29;20034;-74
2021/12/29 03:34:03;;;;;;;35.23;27.87;;;7.80;95.00;;;;;;4842480;29;20439;-74
2021/12/29 03:36:28;;;;;;;35.27;26.93;;;7.70;94.90;;;;;;4842595;29;20112;-73
2021/12/29 03:38:54;;;;;;;34.83;28.30;;;7.70;94.80;;;;;;4842657;29;20113;-74
2021/12/29 03:41:20;;;;;;;35.60;27.90;;;7.70;95.00;;;;;;4842459;29;20390;-73
2021/12/29 03:43:47;;;;;;;37.47;28.97;;;7.70;95.10;;;;;;4842135;29;20038;-74
2021/12/29 03:46:14;;;;;;;37.40;28.43;;;7.70;95.10;;;;;;4842475;29;20034;-74
2021/12/29 03:48:42;;;;;;;35.60;27.60;;;7.70;95.10;;;;;;4842256;29;20121;-73
2021/12/29 03:51:08;;;;;;;36.03;28.07;;;7.80;95.00;;;;;;4842436;29;20082;-74
2021/12/29 03:53:35;;;;;;;38.93;27.20;;;7.80;95.00;;;;;;4842441;29;20030;-76
2021/12/29 03:56:01;;;;;;;38.37;30.03;;;7.80;95.00;;;;;;4842473;29;20121;-74
2021/12/29 03:58:28;;;;;;;38.17;28.73;;;7.80;95.00;;;;;;4842332;29;20383;-74
2021/12/29 04:01:03;;;;;;;38.87;28.83;;;7.80;95.00;;;;;;4842292;29;20060;-73
2021/12/29 04:03:29;;;;;;;38.67;28.87;;;7.80;94.90;;;;;;4856157;29;20112;-74
2021/12/29 04:05:54;;;;;;;34.50;26.70;;;7.80;95.00;;;;;;4842269;29;20589;-74
2021/12/29 04:08:20;;;;;;;33.43;27.40;;;7.80;94.90;;;;;;4842220;29;20038;-73
2021/12/29 04:10:47;;;;;;;39.40;27.67;;;7.80;94.90;;;;;;4842396;29;20045;-73
2021/12/29 04:13:12;;;;;;;38.10;27.97;;;7.90;94.90;;;;;;4842392;29;20178;-73
2021/12/29 04:15:38;;;;;;;37.77;28.87;;;7.80;94.80;;;;;;4842485;29;20055;-73
2021/12/29 04:18:14;;;;;;;37.17;26.13;;;7.80;94.90;;;;;;4842122;29;20037;-73
2021/12/29 04:20:54;;;;;;;34.30;28.17;;;7.80;94.90;;;;;;4842571;29;20046;-73
2021/12/29 04:23:21;;;;;;;32.53;27.03;;;7.80;94.90;;;;;;4842188;29;20034;-73
2021/12/29 04:25:51;;;;;;;34.77;28.07;;;7.80;94.90;;;;;;4842053;29;20041;-72
2021/12/29 04:28:20;;;;;;;32.10;26.47;;;7.80;94.90;;;;;;4842223;29;20037;-73
2021/12/29 04:30:52;;;;;;;32.80;26.67;;;7.90;94.90;;;;;;4842225;29;20037;-74
2021/12/29 04:33:18;;;;;;;32.10;25.90;;;7.90;94.60;;;;;;4844134;29;20424;-73
2021/12/29 04:35:45;;;;;;;29.47;23.63;;;8.00;94.40;;;;;;4845815;29;20033;-74
2021/12/29 04:38:11;;;;;;;29.10;23.90;;;8.00;94.10;;;;;;4845863;29;20034;-73
2021/12/29 04:40:37;;;;;;;29.23;24.77;;;8.10;94.10;;;;;;4845487;29;20034;-73
2021/12/29 04:43:03;;;;;;;27.43;22.83;;;8.00;94.00;;;;;;4845570;29;20037;-73
2021/12/29 04:45:29;;;;;;;29.93;22.93;;;8.10;93.80;;;;;;4859729;29;20034;-73
2021/12/29 04:47:55;;;;;;;30.17;23.00;;;8.10;93.90;;;;;;4845616;29;20090;-74
2021/12/29 04:50:28;;;;;;;28.23;23.33;;;8.00;93.90;;;;;;4845089;29;20551;-73
2021/12/29 04:52:59;;;;;;;29.77;24.37;;;8.10;94.00;;;;;;4844033;29;20446;-73
2021/12/29 04:55:27;;;;;;;28.57;22.40;;;8.10;93.90;;;;;;4845605;29;20034;-74
2021/12/29 04:57:54;;;;;;;26.93;22.90;;;8.10;94.10;;;;;;4845508;29;20030;-74
2021/12/29 05:00:23;;;;;;;27.77;23.03;;;8.10;93.60;;;;;;4845872;29;20479;-74
2021/12/29 05:02:50;;;;;;;31.90;25.27;;;8.10;93.60;;;;;;4845147;29;20101;-74
2021/12/29 05:05:23;;;;;;;29.30;24.30;;;8.10;93.80;;;;;;4845244;29;20542;-73
2021/12/29 05:10:33;;;;;;;33.17;26.83;;;8.00;94.00;;;;;;4845367;29;20048;-74
2021/12/29 05:12:59;;;;;;;32.03;26.77;;;8.00;94.10;;;;;;4845162;29;20045;-73
2021/12/29 05:15:25;;;;;;;32.33;26.33;;;7.90;94.30;;;;;;4845092;29;20041;-74
2021/12/29 05:17:51;;;;;;;34.87;27.37;;;7.90;94.30;;;;;;4844969;29;20030;-74
2021/12/29 05:20:16;;;;;;;32.80;26.67;;;7.90;94.30;;;;;;4844651;29;20030;-74
2021/12/29 05:22:42;;;;;;;33.23;27.23;;;7.90;94.40;;;;;;4844606;29;20053;-74
2021/12/29 05:25:08;;;;;;;31.67;27.30;;;7.90;94.40;;;;;;4845056;29;20037;-74
2021/12/29 05:27:33;;;;;;;32.67;26.60;;;7.90;94.40;;;;;;4845030;29;20502;-73
2021/12/29 05:30:02;;;;;;;34.50;28.03;;;7.90;94.50;;;;;;4845032;29;20033;-74
2021/12/29 05:32:30;;;;;;;35.40;27.97;;;7.90;94.50;;;;;;4844655;29;20026;-74
2021/12/29 05:34:56;;;;;;;38.53;27.93;;;7.90;94.50;;;;;;4844902;29;20026;-74
2021/12/29 05:37:22;;;;;;;35.33;26.93;;;7.90;94.50;;;;;;4844851;29;20483;-75
2021/12/29 05:39:48;;;;;;;43.63;30.73;;;7.90;94.50;;;;;;4844662;29;20062;-74
2021/12/29 05:42:14;;;;;;;38.33;29.50;;;7.80;94.60;;;;;;4844568;29;20509;-73
2021/12/29 05:44:39;;;;;;;37.27;29.63;;;7.80;94.70;;;;;;4843371;29;20069;-74
2021/12/29 05:47:05;;;;;;;36.43;29.33;;;7.90;94.70;;;;;;4858682;29;20029;-73
2021/12/29 05:49:31;;;;;;;41.20;30.50;;;7.90;95.00;;;;;;4844337;29;20128;-73
2021/12/29 05:51:57;;;;;;;44.50;31.40;;;7.90;94.70;;;;;;4844095;29;20026;-73
2021/12/29 05:54:22;;;;;;;41.90;31.00;;;7.90;94.70;;;;;;4844411;29;20055;-74
2021/12/29 05:56:48;;;;;;;41.07;31.47;;;8.00;94.60;;;;;;4844458;29;20036;-73
2021/12/29 05:59:14;;;;;;;40.80;29.73;;;8.00;94.30;;;;;;4844411;29;20403;-74
2021/12/29 06:01:42;;;;;;;37.30;28.97;;;8.00;94.30;;;;;;4844233;29;20030;-74
2021/12/29 06:04:08;;;;;;;44.60;31.37;;;8.00;94.40;;;;;;4844136;29;20038;-73
2021/12/29 06:06:34;;;;;;;42.40;31.83;;;8.00;94.60;;;;;;4843974;29;20030;-75
2021/12/29 06:09:00;;;;;;;43.80;31.33;;;7.90;94.60;;;;;;4844372;29;20030;-74
2021/12/29 06:11:25;;;;;;;43.90;31.77;;;8.00;94.70;;;;;;4844111;29;20026;-74
2021/12/29 06:13:52;;;;;;;41.97;30.43;;;8.00;94.70;;;;;;4843914;29;20482;-73
2021/12/29 06:16:17;;;;;;;40.47;29.53;;;8.00;94.70;;;;;;4844221;29;20426;-74
2021/12/29 06:18:43;;;;;;;44.30;30.70;;;8.00;94.50;;;;;;4843756;29;20061;-74
2021/12/29 06:21:16;;;;;;;43.13;30.50;;;8.10;94.40;;;;;;4843909;29;20030;-73
2021/12/29 06:23:42;;;;;;;;;;;8.10;94.40;;;;;;4843941;29;20061;-74
2021/12/29 06:26:07;;;;;;;44.50;31.73;;;8.10;94.50;;;;;;4843957;29;19908;-74
2021/12/29 06:28:33;;;;;;;44.60;30.90;;;8.10;94.50;;;;;;4843751;29;20364;-75
2021/12/29 06:30:59;;;;;;;40.43;31.80;;;8.00;94.70;;;;;;4843871;29;20588;-74
2021/12/29 06:33:24;;;;;;;49.43;35.47;;;8.00;94.90;;;;;;4843417;29;20036;-73
2021/12/29 06:35:50;;;;;;;47.63;33.97;;;8.00;95.00;;;;;;4843615;29;20034;-73
2021/12/29 06:38:16;;;;;;;51.10;34.93;;;8.00;95.10;;;;;;4843505;29;20037;-74
2021/12/29 06:40:41;;;;;;;46.73;33.57;;;8.00;95.00;;;;;;4843350;29;20029;-73
2021/12/29 06:43:07;;;;;;;39.73;30.93;;;8.00;95.10;;;;;;4843339;29;20113;-73
2021/12/29 06:45:33;;;;;;;43.77;32.27;;;8.00;95.30;;;;;;4843449;29;20101;-74
2021/12/29 06:47:59;;;;;;;47.47;33.03;;;8.00;94.90;;;;;;4843098;29;20104;-74
2021/12/29 06:50:24;;;;;;;41.80;30.83;;;8.10;94.80;;;;;;4842927;29;20054;-72
2021/12/29 06:52:50;;;;;;;44.57;32.70;;;8.10;94.60;;;;;;4843366;29;20026;-73
2021/12/29 06:55:16;;;;;;;43.87;31.03;;;8.10;94.40;;;;;;4843177;29;20041;-74
2021/12/29 06:57:42;;;;;;;46.77;34.77;;;8.20;94.40;;;;;;4842798;29;20373;-74
2021/12/29 07:00:09;;;;;;;47.53;33.87;;;8.10;94.30;;;;;;4842261;29;20026;-73
2021/12/29 07:02:35;;;;;;;42.50;31.70;;;8.10;94.50;;;;;;4842539;29;20018;-73
2021/12/29 07:05:00;;;;;;;39.87;31.60;;;8.10;94.40;;;;;;4840233;29;20583;-73
2021/12/29 07:07:26;;;;;;;44.93;33.90;;;8.10;94.30;;;;;;4840234;29;20026;-74
2021/12/29 07:09:51;;;;;;;45.80;32.73;;;8.10;94.30;;;;;;4841066;29;20037;-73
2021/12/29 07:12:19;;;;;;;41.23;31.60;;;8.10;94.30;;;;;;4843002;29;20101;-73
2021/12/29 07:14:45;;;;;;;43.57;30.83;;;8.10;94.30;;;;;;4842791;29;20034;-77
2021/12/29 07:17:11;;;;;;;40.87;30.07;;;8.10;94.30;;;;;;4843096;29;20097;-79
2021/12/29 07:19:37;;;;;;;40.37;30.50;;;8.10;94.30;;;;;;4842821;29;20234;-77
2021/12/29 07:22:04;;;;;;;42.67;31.60;;;8.10;94.30;;;;;;4843101;29;20475;-78
2021/12/29 07:24:31;;;;;;;43.27;30.57;;;8.10;94.30;;;;;;4842904;29;20395;-78
2021/12/29 07:26:56;;;;;;;42.17;31.20;;;8.10;94.40;;;;;;4842839;29;20106;-78
2021/12/29 07:29:22;;;;;;;46.43;32.30;;;8.10;94.40;;;;;;4842838;29;20485;-78
2021/12/29 07:31:48;;;;;;;39.37;31.53;;;8.10;94.60;;;;;;4842883;29;20046;-75
2021/12/29 07:34:14;;;;;;;43.20;33.03;;;8.10;94.80;;;;;;4842748;29;20057;-75
2021/12/29 07:36:40;;;;;;;47.90;34.73;;;8.10;94.80;;;;;;4842806;29;20065;-74
2021/12/29 07:39:10;;;;;;;49.37;34.70;;;8.10;94.80;;;;;;4842809;29;20042;-74
2021/12/29 07:41:36;;;;;;;49.07;35.30;;;8.20;94.90;;;;;;4839518;29;20024;-75
2021/12/29 07:44:04;;;;;;;49.77;36.13;;;8.20;94.70;;;;;;4839610;29;20077;-74
2021/12/29 07:46:33;;;;;;;45.77;34.33;;;8.20;94.60;;;;;;4841522;29;20445;-74
2021/12/29 07:49:00;;;;;;;48.07;33.93;;;8.20;94.60;;;;;;4842463;29;20046;-74
2021/12/29 07:51:25;;;;;;;53.03;34.20;;;8.30;94.50;;;;;;4842664;29;20026;-73
2021/12/29 07:53:51;;;;;;;48.83;33.47;;;8.30;94.40;;;;;;4842401;29;20033;-74
2021/12/29 07:56:17;;;;;;;45.77;36.03;;;8.30;94.50;;;;;;4842680;29;20399;-74
2021/12/29 07:58:43;;;;;;;48.47;35.97;;;8.30;94.60;;;;;;4842725;29;20030;-73
2021/12/29 08:01:09;;;;;;;49.40;36.10;;;8.30;94.80;;;;;;4842672;29;20034;-73
2021/12/29 08:03:35;;;;;;;60.20;36.60;;;8.40;94.90;;;;;;4842150;29;20475;-74
2021/12/29 08:06:01;;;;;;;43.73;34.10;;;8.40;95.00;;;;;;4842504;29;20045;-75
2021/12/29 08:08:27;;;;;;;44.03;33.53;;;8.40;94.90;;;;;;4844723;29;20026;-78
2021/12/29 08:10:52;;;;;;;44.33;31.23;;;8.50;94.90;;;;;;4846276;29;20085;-79
2021/12/29 08:13:19;;;;;;;44.13;31.47;;;8.60;94.90;;;;;;4846120;29;20038;-79
2021/12/29 08:15:45;;;;;;;38.17;26.77;;;8.60;94.90;;;;;;4846145;29;20056;-75
2021/12/29 08:18:11;;;;;;;39.07;27.80;;;8.60;94.70;;;;;;4846098;29;20034;-80
2021/12/29 08:20:36;;;;;;;36.67;25.53;;;8.60;94.60;;;;;;4846165;29;20037;-79
2021/12/29 08:23:07;;;;;;;44.87;31.00;;;8.70;94.40;;;;;;4845823;29;20042;-78
2021/12/29 08:25:32;;;;;;;45.27;32.47;;;8.60;94.20;;;;;;4846143;29;20170;-79
2021/12/29 08:27:58;;;;;;;42.00;31.53;;;8.70;94.10;;;;;;4845679;29;20108;-79
2021/12/29 08:30:25;;;;;;;41.47;33.17;;;8.70;94.00;;;;;;4845747;29;20030;-79
2021/12/29 08:32:50;;;;;;;45.83;31.60;;;8.70;93.90;;;;;;4845743;29;20321;-74
2021/12/29 08:35:16;;;;;;;43.73;32.70;;;8.80;94.00;;;;;;4845919;29;20468;-75
2021/12/29 08:37:42;;;;;;;40.07;31.27;;;8.80;93.80;;;;;;4845491;29;20457;-74
2021/12/29 08:40:10;;;;;;;41.57;31.93;;;8.70;93.80;;;;;;4845867;29;20067;-74
2021/12/29 08:42:37;;;;;;;42.10;31.70;;;8.80;93.70;;;;;;4845657;29;20061;-74
2021/12/29 08:45:05;;;;;;;38.70;30.27;;;8.80;93.40;;;;;;4845422;29;20543;-73
2021/12/29 08:47:31;;;;;;;43.80;32.13;;;8.80;93.40;;;;;;4845672;29;20452;-78
2021/12/29 08:49:56;;;;;;;43.27;31.37;;;8.80;93.10;;;;;;4843682;29;20096;-76
2021/12/29 08:52:22;;;;;;;42.53;31.10;;;8.90;93.10;;;;;;4844844;29;20058;-73
2021/12/29 08:54:48;;;;;;;42.27;32.37;;;8.90;93.10;;;;;;4845191;29;20113;-73
2021/12/29 08:57:13;;;;;;;42.20;32.07;;;9.00;93.10;;;;;;4851918;29;20029;-71
2021/12/29 08:59:39;;;;;;;45.50;33.40;;;9.00;93.30;;;;;;4863586;29;20025;-72
2021/12/29 09:02:05;;;;;;;44.33;32.37;;;9.00;93.10;;;;;;4863149;29;20067;-75
2021/12/29 09:04:31;;;;;;;42.77;32.27;;;9.10;93.10;;;;;;4860770;29;20071;-76
2021/12/29 09:06:56;;;;;;;45.33;34.20;;;9.10;92.80;;;;;;4845108;29;20090;-73
2021/12/29 09:09:22;;;;;;;50.57;36.67;;;9.10;92.70;;;;;;4844773;29;20091;-78
2021/12/29 09:11:48;;;;;;;57.93;36.37;;;9.10;92.60;;;;;;4844368;29;20029;-72
2021/12/29 09:14:14;;;;;;;61.07;37.67;;;9.10;92.60;;;;;;4844613;29;20038;-79
2021/12/29 09:16:40;;;;;;;68.20;36.47;;;9.10;92.60;;;;;;4845042;29;20436;-74
2021/12/29 09:19:11;;;;;;;55.63;36.77;;;9.00;92.80;;;;;;4844122;29;20542;-80
2021/12/29 09:21:38;;;;;;;70.93;37.07;;;9.00;92.80;;;;;;4844499;29;20403;-79
2021/12/29 09:24:05;;;;;;;137.03;36.57;;;8.90;92.90;;;;;;4844766;29;20120;-81
2021/12/29 09:26:31;;;;;;;112.23;38.53;;;8.90;93.00;;;;;;4844336;29;20030;-80
2021/12/29 09:28:57;;;;;;;60.93;38.30;;;8.80;93.20;;;;;;4844508;29;20111;-79
2021/12/29 09:31:24;;;;;;;53.87;36.47;;;8.80;93.40;;;;;;4844132;29;20034;-80
2021/12/29 09:33:51;;;;;;;55.20;37.77;;;8.70;93.60;;;;;;4844264;29;20467;-81
2021/12/29 09:36:17;;;;;;;56.97;36.20;;;8.70;93.80;;;;;;4844636;29;20063;-77
2021/12/29 09:38:44;;;;;;;53.83;35.77;;;8.70;93.70;;;;;;4844354;29;20158;-81
2021/12/29 09:41:14;;;;;;;56.43;36.80;;;8.80;93.50;;;;;;4843965;29;20083;-75
2021/12/29 09:43:41;;;;;;;49.13;33.90;;;8.90;93.40;;;;;;4843882;29;20479;-79
2021/12/29 09:46:07;;;;;;;50.87;35.67;;;8.90;93.30;;;;;;4844801;29;20376;-80
2021/12/29 09:48:34;;;;;;;48.73;33.93;;;8.90;93.30;;;;;;4844718;29;20042;-79
2021/12/29 09:51:01;;;;;;;42.50;30.73;;;8.90;93.40;;;;;;4844229;29;20195;-78
2021/12/29 09:53:27;;;;;;;47.13;33.20;;;9.00;93.50;;;;;;4843779;29;20365;-78
2021/12/29 09:55:53;;;;;;;46.67;32.23;;;9.10;93.50;;;;;;4844010;29;20036;-79
2021/12/29 09:58:19;;;;;;;47.67;31.33;;;9.10;93.30;;;;;;4844175;29;20022;-80
2021/12/29 10:00:50;;;;;;;41.27;30.07;;;9.10;93.40;;;;;;4843719;29;20166;-79
2021/12/29 10:03:18;;;;;;;43.07;29.90;;;9.20;93.60;;;;;;4843610;29;20045;-80
2021/12/29 10:05:46;;;;;;;38.37;27.33;;;9.20;93.70;;;;;;4843711;29;20037;-73
2021/12/29 10:08:14;;;;;;;36.83;26.33;;;9.30;93.00;;;;;;4840273;29;20066;-78
2021/12/29 10:10:44;;;;;;;33.77;24.30;;;9.30;92.80;;;;;;4843622;29;20072;-76
2021/12/29 10:13:11;;;;;;;34.60;24.00;;;9.40;92.60;;;;;;4843489;29;20053;-77
2021/12/29 10:15:47;;;;;;;32.70;23.77;;;9.40;92.40;;;;;;4843630;29;20052;-80
2021/12/29 10:18:20;;;;;;;35.77;25.30;;;9.50;92.30;;;;;;4843577;29;20033;-80
2021/12/29 10:20:50;;;;;;;35.90;25.30;;;9.50;92.40;;;;;;4843318;29;20034;-72
2021/12/29 10:23:22;;;;;;;32.50;24.03;;;9.50;92.40;;;;;;4843988;29;20034;-80
2021/12/29 10:25:50;;;;;;;27.70;21.73;;;9.60;92.30;;;;;;4844386;29;20045;-80
2021/12/29 10:28:31;;;;;;;31.33;22.87;;;9.70;92.30;;;;;;4846379;29;20034;-78
2021/12/29 10:31:16;;;;;;;29.60;21.90;;;9.70;92.30;;;;;;4846382;29;20452;-79
2021/12/29 10:33:54;;;;;;;33.67;22.13;;;9.70;92.20;;;;;;4847780;29;20062;-80
2021/12/29 10:36:24;;;;;;;26.17;21.07;;;9.80;92.30;;;;;;4846625;29;20502;-79
2021/12/29 10:39:05;;;;;;;28.23;20.70;;;9.80;92.10;;;;;;4852915;29;20037;-79
2021/12/29 10:41:42;;;;;;;27.40;19.27;;;9.90;92.10;;;;;;4861608;29;20482;-79
2021/12/29 10:44:07;;;;;;;25.83;20.00;;;9.90;92.10;;;;;;4861257;29;20077;-78
2021/12/29 10:46:33;;;;;;;35.47;27.03;;;9.90;92.10;;;;;;4861645;29;20483;-79
2021/12/29 10:49:03;;;;;;;28.13;21.43;;;10.00;92.40;;;;;;4861595;29;20514;-76
2021/12/29 10:51:34;;;;;;;27.37;20.63;;;10.00;92.30;;;;;;4861351;29;20029;-78
2021/12/29 10:54:16;;;;;;;27.30;20.57;;;10.00;92.30;;;;;;4861621;29;20101;-79
2021/12/29 10:57:02;;;;;;;27.63;20.63;;;10.10;92.30;;;;;;4861351;29;20442;-79
2021/12/29 10:59:31;;;;;;;31.10;20.57;;;10.10;92.20;;;;;;4861283;29;20033;-78
2021/12/29 11:01:58;;;;;;;30.97;21.47;;;10.10;92.20;;;;;;4861507;29;20505;-78
2021/12/29 11:04:25;;;;;;;25.83;19.37;;;10.10;92.50;;;;;;4860760;29;20533;-76
2021/12/29 11:06:56;;;;;;;25.93;20.33;;;10.10;92.00;;;;;;4854477;29;20513;-75
2021/12/29 11:09:27;;;;;;;24.73;19.80;;;10.20;91.80;;;;;;4842711;29;20034;-77
2021/12/29 11:11:54;;;;;;;27.73;21.03;;;10.20;91.60;;;;;;4843041;29;20139;-78
2021/12/29 11:14:37;;;;;;;197.50;26.70;;;10.20;91.50;;;;;;4842991;29;20041;-77
2021/12/29 11:17:05;;;;;;;;;;;10.30;92.50;;;;;;4843340;29;20034;-77
2021/12/29 11:19:31;;;;;;;24.27;17.30;;;10.40;91.70;;;;;;4841030;29;19912;-77
2021/12/29 11:22:12;;;;;;;27.20;17.97;;;10.40;91.30;;;;;;4840243;29;20037;-76
2021/12/29 11:24:40;;;;;;;19.27;15.80;;;10.40;91.10;;;;;;4840519;29;20546;-75
2021/12/29 11:27:16;;;;;;;20.35;16.38;;;10.40;91.00;;;;;;4840308;29;20038;-77
2021/12/29 11:29:50;;;;;;;23.10;16.93;;;10.50;91.00;;;;;;4840195;29;20042;-75
2021/12/29 11:32:30;;;;;;;21.73;16.27;;;10.60;90.80;;;;;;4842141;29;20034;-77
2021/12/29 11:35:01;;;;;;;22.63;16.90;;;10.60;90.70;;;;;;4842706;29;20022;-76
2021/12/29 11:37:27;;;;;;;21.05;16.30;;;10.60;90.60;;;;;;4842453;29;20030;-75
2021/12/29 11:39:54;;;;;;;23.47;16.17;;;10.60;90.80;;;;;;4842380;29;20486;-76
2021/12/29 11:42:19;;;;;;;19.20;13.60;;;10.70;90.90;;;;;;4856055;29;20479;-75
2021/12/29 11:44:45;;;;;;;18.20;14.43;;;10.80;90.60;;;;;;4842605;29;20121;-76
2021/12/29 11:47:12;;;;;;;16.23;13.60;;;10.80;90.30;;;;;;4842533;29;20052;-76
2021/12/29 11:49:38;;;;;;;16.98;12.57;;;10.90;90.20;;;;;;4842345;29;20054;-75
2021/12/29 11:52:23;;;;;;;17.27;12.90;;;10.90;90.00;;;;;;4842345;29;20375;-73
2021/12/29 11:55:15;;;;;;;17.60;12.30;;;11.00;89.30;;;;;;4839400;29;20041;-74
2021/12/29 11:57:41;;;;;;;14.95;11.43;;;11.00;89.00;;;;;;4839766;29;20041;-73
2021/12/29 12:00:17;;;;;;;16.88;12.95;;;11.10;88.70;;;;;;4841118;29;20411;-72
2021/12/29 12:02:47;;;;;;;15.70;12.50;;;11.10;88.40;;;;;;4841832;29;20029;-73
2021/12/29 12:05:19;;;;;;;17.65;13.18;;;11.10;88.10;;;;;;4842120;29;20030;-72
2021/12/29 12:07:45;;;;;;;15.15;12.23;;;11.00;87.90;;;;;;4841885;29;20022;-74
2021/12/29 12:10:25;;;;;;;16.60;12.75;;;11.00;88.20;;;;;;4842175;29;20033;-71
2021/12/29 12:12:53;;;;;;;11.27;9.13;;;11.10;88.60;;;;;;4842175;29;20033;-73
2021/12/29 12:15:30;;;;;;;13.85;10.23;;;11.00;86.80;;;;;;4841664;29;20476;-75
2021/12/29 12:18:05;;;;;;;13.98;11.73;;;11.00;86.90;;;;;;4842119;29;20051;-74
2021/12/29 12:20:48;;;;;;;11.45;8.57;;;11.00;87.00;;;;;;4842182;29;20030;-73
2021/12/29 12:23:29;;;;;;;8.55;6.90;;;11.00;86.50;;;;;;4841534;29;20034;-75
2021/12/29 12:26:08;;;;;;;7.32;5.30;;;11.00;86.00;;;;;;4842158;29;20041;-72
2021/12/29 12:28:44;;;;;;;8.32;6.28;;;11.00;85.90;;;;;;4841002;29;20037;-70
2021/12/29 12:31:21;;;;;;;9.60;6.32;;;11.00;86.00;;;;;;4842005;29;20029;-70
2021/12/29 12:33:47;;;;;;;9.73;5.95;;;11.00;85.10;;;;;;4842384;29;20163;-70
2021/12/29 12:36:13;;;;;;;10.13;6.55;;;11.00;83.90;;;;;;4841589;29;20120;-74
2021/12/29 12:38:38;;;;;;;9.65;6.90;;;11.00;84.20;;;;;;4841622;29;20383;-74
2021/12/29 12:41:09;;;;;;;8.95;5.88;;;11.00;84.00;;;;;;4841911;29;20038;-74
2021/12/29 12:43:51;;;;;;;10.18;7.45;;;11.00;84.30;;;;;;4841801;29;20121;-73